createdAt,value
2023-05-11T00:02:25.051Z,25.30
2023-05-11T00:04:52.113Z,26.37
2023-05-11T00:07:18.925Z,30.40
2023-05-11T00:09:45.723Z,28.93
2023-05-11T00:12:13.482Z,26.20
2023-05-11T00:14:40.788Z,31.73
2023-05-11T00:17:07.709Z,29.90
2023-05-11T00:19:34.563Z,25.33
2023-05-11T00:22:01.887Z,28.90
2023-05-11T00:24:28.731Z,30.70
2023-05-11T00:26:56.464Z,30.50
2023-05-11T00:29:23.312Z,30.57
2023-05-11T00:31:50.317Z,31.20
2023-05-11T00:34:18.186Z,28.33
2023-05-11T00:36:45.599Z,32.20
2023-05-11T00:39:12.731Z,43.13
2023-05-11T00:41:40.613Z,38.00
2023-05-11T00:44:07.761Z,26.50
2023-05-11T00:46:35.284Z,28.80
2023-05-11T00:49:02.514Z,30.13
2023-05-11T00:51:30.180Z,32.70
2023-05-11T00:53:57.338Z,35.50
2023-05-11T00:56:24.171Z,33.70
2023-05-11T00:58:51.524Z,30.97
2023-05-11T01:01:19.266Z,35.07
2023-05-11T01:03:47.457Z,35.37
2023-05-11T01:06:22.093Z,33.73
2023-05-11T01:09:02.763Z,37.97
2023-05-11T01:11:57.125Z,33.33
2023-05-11T01:14:31.528Z,31.80
2023-05-11T01:17:06.030Z,36.53
2023-05-11T01:19:40.430Z,38.30
2023-05-11T01:22:57.081Z,29.33
2023-05-11T01:26:07.141Z,33.13
2023-05-11T01:28:58.420Z,31.70
2023-05-11T01:31:30.517Z,34.00
2023-05-11T01:34:05.038Z,34.20
2023-05-11T01:36:39.004Z,35.03
2023-05-11T01:39:10.172Z,34.20
2023-05-11T01:41:40.393Z,29.63
2023-05-11T01:44:10.690Z,31.80
2023-05-11T01:46:38.757Z,29.17
2023-05-11T01:49:07.697Z,28.40
2023-05-11T01:51:37.768Z,23.93
2023-05-11T01:54:08.255Z,32.20
2023-05-11T01:56:37.444Z,30.37
2023-05-11T01:59:05.894Z,31.00
2023-05-11T02:01:35.964Z,28.00
2023-05-11T02:04:04.898Z,28.80
2023-05-11T02:06:34.589Z,33.10
2023-05-11T02:09:03.375Z,31.23
2023-05-11T02:11:32.267Z,40.57
2023-05-11T02:14:00.456Z,35.73
2023-05-11T02:16:28.569Z,41.80
2023-05-11T02:18:57.046Z,36.67
2023-05-11T02:21:25.787Z,42.03
2023-05-11T02:23:53.958Z,38.33
2023-05-11T02:26:20.964Z,43.13
2023-05-11T02:28:47.916Z,38.43
2023-05-11T02:31:21.297Z,39.03
2023-05-11T02:33:52.422Z,42.43
2023-05-11T02:36:22.394Z,43.60
2023-05-11T02:38:53.743Z,38.07
2023-05-11T02:41:27.020Z,46.90
2023-05-11T02:43:55.506Z,44.00
2023-05-11T02:46:28.440Z,46.53
2023-05-11T02:49:01.239Z,44.13
2023-05-11T02:51:36.069Z,39.50
2023-05-11T02:54:07.275Z,47.27
2023-05-11T02:56:34.400Z,41.73
2023-05-11T02:59:01.527Z,47.33
2023-05-11T03:01:30.847Z,50.20
2023-05-11T03:03:58.425Z,50.03
2023-05-11T03:06:26.041Z,48.87
2023-05-11T03:08:53.164Z,36.93
2023-05-11T03:11:21.510Z,44.77
2023-05-11T03:13:50.259Z,51.77
2023-05-11T03:16:20.923Z,47.87
2023-05-11T03:18:50.053Z,53.17
2023-05-11T03:21:21.550Z,51.57
2023-05-11T03:23:49.544Z,47.03
2023-05-11T03:26:19.402Z,50.00
2023-05-11T03:28:47.324Z,47.37
2023-05-11T03:31:14.641Z,49.67
2023-05-11T03:33:41.473Z,57.27
2023-05-11T03:36:10.741Z,50.03
2023-05-11T03:38:38.195Z,55.97
2023-05-11T03:41:05.044Z,66.23
2023-05-11T03:43:35.185Z,66.00
2023-05-11T03:46:04.419Z,57.23
2023-05-11T03:48:32.453Z,63.63
2023-05-11T03:51:00.164Z,72.40
2023-05-11T03:53:27.112Z,69.23
2023-05-11T03:55:54.953Z,71.47
2023-05-11T03:58:22.892Z,75.93
2023-05-11T04:00:50.232Z,70.37
2023-05-11T04:03:17.201Z,71.47
2023-05-11T04:05:44.138Z,78.50
2023-05-11T04:08:11.987Z,90.03
2023-05-11T04:10:38.858Z,85.50
2023-05-11T04:13:05.890Z,94.10
2023-05-11T04:15:32.755Z,82.10
2023-05-11T04:17:59.638Z,79.90
2023-05-11T04:20:26.823Z,98.70
2023-05-11T04:22:53.654Z,87.57
2023-05-11T04:25:20.592Z,77.93
2023-05-11T04:27:47.433Z,79.23
2023-05-11T04:30:14.471Z,91.30
2023-05-11T04:32:41.441Z,85.03
2023-05-11T04:35:08.754Z,83.77
2023-05-11T04:37:35.673Z,78.33
2023-05-11T04:40:02.589Z,67.20
2023-05-11T04:42:30.708Z,71.93
2023-05-11T04:44:57.541Z,66.37
2023-05-11T04:47:24.405Z,58.70
2023-05-11T04:49:52.119Z,69.70
2023-05-11T04:52:19.001Z,59.13
2023-05-11T04:54:45.999Z,48.73
2023-05-11T04:57:12.842Z,53.83
2023-05-11T04:59:39.781Z,52.60
2023-05-11T05:02:06.653Z,41.20
2023-05-11T05:04:35.631Z,42.80
2023-05-11T05:07:04.489Z,39.83
2023-05-11T05:09:31.331Z,43.97
2023-05-11T05:11:58.282Z,39.73
2023-05-11T05:14:25.132Z,35.10
2023-05-11T05:16:54.641Z,35.93
2023-05-11T05:19:21.602Z,34.87
2023-05-11T05:21:48.561Z,37.70
2023-05-11T05:24:15.564Z,46.73
2023-05-11T05:26:42.372Z,37.60
2023-05-11T05:29:09.302Z,36.67
2023-05-11T05:31:36.178Z,38.93
2023-05-11T05:34:02.989Z,40.87
2023-05-11T05:36:29.798Z,36.23
2023-05-11T05:38:56.614Z,42.63
2023-05-11T05:41:23.547Z,42.80
2023-05-11T05:43:50.459Z,40.13
2023-05-11T05:46:18.139Z,36.23
2023-05-11T05:48:45.022Z,34.83
2023-05-11T05:51:11.909Z,47.07
2023-05-11T05:53:39.040Z,44.93
2023-05-11T05:56:06.257Z,44.90
2023-05-11T05:58:33.161Z,54.33
2023-05-11T06:01:01.027Z,54.73
2023-05-11T06:03:29.466Z,50.27
2023-05-11T06:05:56.751Z,44.23
2023-05-11T06:08:23.633Z,49.00
2023-05-11T06:10:50.571Z,46.83
2023-05-11T06:13:17.394Z,51.37
2023-05-11T06:15:44.225Z,47.47
2023-05-11T06:18:11.316Z,46.57
2023-05-11T06:20:38.205Z,47.43
2023-05-11T06:23:05.175Z,56.73
2023-05-11T06:25:35.079Z,57.67
2023-05-11T06:28:02.183Z,57.87
2023-05-11T06:30:29.707Z,57.67
2023-05-11T06:32:56.652Z,54.23
2023-05-11T06:35:23.624Z,60.20
2023-05-11T06:37:50.590Z,60.97
2023-05-11T06:40:17.671Z,57.17
2023-05-11T06:42:44.799Z,77.20
2023-05-11T06:45:11.757Z,56.17
2023-05-11T06:47:38.699Z,56.87
2023-05-11T06:50:06.166Z,54.63
2023-05-11T06:52:32.968Z,60.50
2023-05-11T06:54:59.801Z,59.20
2023-05-11T06:57:26.657Z,58.77
2023-05-11T06:59:53.515Z,70.00
2023-05-11T07:02:20.516Z,59.03
2023-05-11T07:04:47.387Z,56.93
2023-05-11T07:07:14.230Z,62.73
2023-05-11T07:09:42.080Z,55.63
2023-05-11T07:12:09.066Z,58.17
2023-05-11T07:14:35.913Z,61.87
2023-05-11T07:17:02.786Z,70.13
2023-05-11T07:19:29.702Z,55.97
2023-05-11T07:21:56.608Z,70.83
2023-05-11T07:24:23.516Z,65.50
2023-05-11T07:26:52.032Z,62.00
2023-05-11T07:29:18.888Z,58.60
2023-05-11T07:31:46.073Z,75.63
2023-05-11T07:34:12.962Z,67.07
2023-05-11T07:36:39.864Z,58.10
2023-05-11T07:39:06.835Z,54.60
2023-05-11T07:41:33.699Z,54.67
2023-05-11T07:44:01.873Z,53.57
2023-05-11T07:46:28.802Z,53.90
2023-05-11T07:49:11.336Z,53.63
2023-05-11T07:51:42.830Z,61.97
2023-05-11T07:54:09.776Z,54.90
2023-05-11T07:56:36.641Z,64.97
2023-05-11T07:59:03.503Z,51.53
2023-05-11T08:01:30.432Z,58.10
2023-05-11T08:03:57.265Z,59.80
2023-05-11T08:06:24.112Z,52.53
2023-05-11T08:08:51.512Z,55.07
2023-05-11T08:11:18.559Z,51.00
2023-05-11T08:13:45.380Z,51.57
2023-05-11T08:16:12.701Z,58.13
2023-05-11T08:18:39.652Z,52.07
2023-05-11T08:21:07.760Z,46.53
2023-05-11T08:23:34.748Z,46.93
2023-05-11T08:28:42.290Z,42.07
2023-05-11T08:31:09.151Z,47.20
2023-05-11T08:33:38.628Z,55.80
2023-05-11T08:36:07.000Z,37.50
2023-05-11T08:38:35.654Z,45.67
2023-05-11T08:41:02.978Z,51.57
2023-05-11T08:43:31.956Z,51.60
2023-05-11T08:46:04.368Z,42.57
2023-05-11T08:48:32.068Z,35.97
2023-05-11T08:50:59.496Z,44.63
2023-05-11T08:53:26.620Z,41.87
2023-05-11T08:55:58.077Z,38.47
2023-05-11T08:58:25.540Z,38.03
2023-05-11T09:00:52.542Z,37.87
2023-05-11T09:03:19.809Z,37.50
2023-05-11T09:05:47.686Z,36.90
2023-05-11T09:08:15.543Z,42.47
2023-05-11T09:10:43.810Z,38.43
2023-05-11T09:13:11.321Z,36.60
2023-05-11T09:15:38.533Z,39.60
2023-05-11T09:18:05.895Z,31.60
2023-05-11T09:20:34.078Z,38.50
2023-05-11T09:23:01.443Z,35.10
2023-05-11T09:25:33.744Z,31.07
2023-05-11T09:28:00.899Z,28.67
2023-05-11T09:30:28.388Z,31.27
2023-05-11T09:32:57.280Z,34.07
2023-05-11T09:35:26.601Z,30.30
2023-05-11T09:38:05.461Z,29.17
2023-05-11T09:40:50.077Z,29.53
2023-05-11T09:43:25.075Z,29.00
2023-05-11T09:45:54.409Z,34.07
2023-05-11T09:48:21.422Z,26.00
2023-05-11T09:50:50.324Z,30.47
2023-05-11T09:53:17.830Z,29.47
2023-05-11T09:55:56.046Z,28.07
2023-05-11T09:58:23.008Z,29.67
2023-05-11T10:00:56.666Z,30.30
2023-05-11T10:03:25.857Z,26.07
2023-05-11T10:06:00.810Z,24.63
2023-05-11T10:08:30.385Z,25.53
2023-05-11T10:10:57.962Z,31.93
2023-05-11T10:13:25.032Z,28.80
2023-05-11T10:15:52.968Z,29.87
2023-05-11T10:18:20.389Z,32.83
2023-05-11T10:20:47.897Z,31.07
2023-05-11T10:23:16.014Z,39.70
2023-05-11T10:25:43.265Z,36.13
2023-05-11T10:28:11.038Z,41.20
2023-05-11T10:30:38.454Z,34.90
2023-05-11T10:33:06.926Z,34.27
2023-05-11T10:35:34.169Z,34.03
2023-05-11T10:38:01.431Z,34.07
2023-05-11T10:40:28.812Z,38.80
2023-05-11T10:43:13.633Z,36.50
2023-05-11T10:45:47.056Z,42.57
2023-05-11T10:48:35.866Z,33.60
2023-05-11T10:51:34.349Z,35.30
2023-05-11T10:54:09.791Z,27.80
2023-05-11T10:57:04.969Z,35.10
2023-05-11T11:00:10.279Z,33.67
2023-05-11T11:02:38.225Z,38.53
2023-05-11T11:05:09.371Z,34.67
2023-05-11T11:07:59.933Z,34.27
2023-05-11T11:10:46.509Z,39.10
2023-05-11T11:13:15.278Z,33.97
2023-05-11T11:15:54.513Z,31.93
2023-05-11T11:18:25.430Z,30.63
2023-05-11T11:20:54.961Z,27.70
2023-05-11T11:23:40.274Z,37.40
2023-05-11T11:26:08.374Z,33.13
2023-05-11T11:28:53.919Z,36.03
2023-05-11T11:31:29.005Z,33.67
2023-05-11T11:33:59.385Z,37.07
2023-05-11T11:37:06.633Z,35.13
2023-05-11T11:39:47.507Z,34.63
2023-05-11T11:42:19.416Z,30.60
2023-05-11T11:44:46.710Z,32.77
2023-05-11T11:47:21.782Z,26.83
2023-05-11T11:49:56.037Z,30.40
2023-05-11T11:52:29.108Z,37.70
2023-05-11T11:54:57.376Z,36.20
2023-05-11T11:57:32.627Z,34.63
2023-05-11T12:00:13.050Z,28.67
2023-05-11T12:02:44.721Z,31.43
2023-05-11T12:05:20.007Z,30.20
2023-05-11T12:07:51.639Z,32.17
2023-05-11T12:10:21.371Z,26.27
2023-05-11T12:12:49.533Z,28.87
2023-05-11T12:15:27.460Z,24.67
2023-05-11T12:17:55.194Z,20.83
2023-05-11T12:20:26.087Z,26.93
2023-05-11T12:22:53.773Z,19.63
2023-05-11T12:25:22.077Z,22.97
2023-05-11T12:27:55.483Z,23.87
2023-05-11T12:30:24.832Z,26.33
2023-05-11T12:32:56.885Z,25.57
2023-05-11T12:35:28.139Z,24.10
2023-05-11T12:37:56.622Z,14.17
2023-05-11T12:40:24.028Z,21.73
2023-05-11T12:42:58.751Z,27.77
2023-05-11T12:45:27.138Z,21.90
2023-05-11T12:47:55.395Z,26.37
2023-05-11T12:50:22.840Z,20.17
2023-05-11T12:52:50.803Z,27.77
2023-05-11T12:55:28.802Z,27.97
2023-05-11T12:58:08.132Z,20.23
2023-05-11T13:00:35.378Z,15.43
2023-05-11T13:03:02.991Z,24.83
2023-05-11T13:05:30.413Z,15.40
2023-05-11T13:08:05.340Z,25.73
2023-05-11T13:10:32.374Z,23.67
2023-05-11T13:12:59.543Z,19.30
2023-05-11T13:15:28.778Z,22.53
2023-05-11T13:18:00.798Z,22.43
2023-05-11T13:20:35.225Z,21.93
2023-05-11T13:23:10.939Z,24.57
2023-05-11T13:25:48.376Z,21.63
2023-05-11T13:28:16.602Z,25.93
2023-05-11T13:30:43.936Z,28.47
2023-05-11T13:33:10.934Z,22.70
2023-05-11T13:35:41.954Z,25.07
2023-05-11T13:38:10.051Z,24.97
2023-05-11T13:40:37.481Z,27.10
2023-05-11T13:43:04.833Z,26.40
2023-05-11T13:45:31.677Z,23.23
2023-05-11T13:47:58.550Z,33.90
2023-05-11T13:50:26.849Z,32.63
2023-05-11T13:52:54.412Z,33.17
2023-05-11T13:55:21.664Z,29.10
2023-05-11T13:57:48.760Z,35.40
2023-05-11T14:00:16.277Z,42.07
2023-05-11T14:02:44.410Z,43.00
2023-05-11T14:05:11.484Z,35.57
2023-05-11T14:07:47.092Z,40.10
2023-05-11T14:10:15.833Z,32.73
2023-05-11T14:12:42.852Z,40.43
2023-05-11T14:15:10.591Z,28.30
2023-05-11T14:17:37.650Z,36.87
2023-05-11T14:20:06.181Z,39.03
2023-05-11T14:22:33.093Z,47.23
2023-05-11T14:25:00.208Z,42.60
2023-05-11T14:27:27.062Z,47.30
2023-05-11T14:29:54.591Z,46.57
2023-05-11T14:32:21.578Z,39.70
2023-05-11T14:34:48.909Z,43.43
2023-05-11T14:37:15.854Z,43.77
2023-05-11T14:39:42.736Z,39.03
2023-05-11T14:42:10.902Z,36.27
2023-05-11T14:44:38.110Z,53.37
2023-05-11T14:47:05.638Z,29.60
2023-05-11T14:49:32.576Z,43.03
2023-05-11T14:51:59.824Z,42.60
2023-05-11T14:54:26.725Z,31.67
2023-05-11T14:56:56.170Z,33.90
2023-05-11T14:59:24.543Z,36.53
2023-05-11T15:01:51.647Z,32.97
2023-05-11T15:04:19.626Z,41.70
2023-05-11T15:06:46.830Z,42.33
2023-05-11T15:09:13.919Z,43.00
2023-05-11T15:11:40.989Z,37.97
2023-05-11T15:14:07.820Z,41.73
2023-05-11T15:16:34.741Z,40.97
2023-05-11T15:19:01.782Z,37.77
2023-05-11T15:21:28.633Z,44.00
2023-05-11T15:23:55.691Z,40.30
2023-05-11T15:26:23.008Z,44.77
2023-05-11T15:28:50.160Z,32.60
2023-05-11T15:31:17.398Z,40.70
2023-05-11T15:33:44.896Z,44.93
2023-05-11T15:36:13.736Z,48.63
2023-05-11T15:38:41.552Z,43.43
2023-05-11T15:41:08.401Z,46.73
2023-05-11T15:43:35.463Z,46.20
2023-05-11T15:46:05.803Z,54.73
2023-05-11T15:48:35.774Z,55.67
2023-05-11T15:51:03.046Z,49.93
2023-05-11T15:53:30.012Z,44.13
2023-05-11T15:55:57.126Z,44.10
2023-05-11T15:58:24.050Z,39.70
2023-05-11T16:00:51.416Z,37.20
2023-05-11T16:03:20.146Z,35.90
2023-05-11T16:05:47.224Z,40.77
2023-05-11T16:08:14.762Z,38.47
2023-05-11T16:10:45.634Z,38.07
2023-05-11T16:13:12.536Z,41.47
2023-05-11T16:15:39.395Z,42.40
2023-05-11T16:18:06.755Z,45.10
2023-05-11T16:20:33.683Z,46.50
2023-05-11T16:23:00.537Z,49.07
2023-05-11T16:25:27.432Z,45.10
2023-05-11T16:27:54.364Z,44.23
2023-05-11T16:30:25.554Z,48.23
2023-05-11T16:32:53.585Z,43.40
2023-05-11T16:35:20.958Z,39.40
2023-05-11T16:37:48.379Z,37.37
2023-05-11T16:40:19.424Z,36.87
2023-05-11T16:42:47.584Z,42.30
2023-05-11T16:45:15.208Z,34.07
2023-05-11T16:47:42.694Z,32.97
2023-05-11T16:50:10.903Z,36.33
2023-05-11T16:52:37.714Z,41.50
2023-05-11T16:55:05.120Z,35.00
2023-05-11T16:57:31.999Z,43.33
2023-05-11T16:59:58.877Z,29.53
2023-05-11T17:02:25.940Z,33.47
2023-05-11T17:04:53.101Z,32.70
2023-05-11T17:07:19.945Z,31.87
2023-05-11T17:09:46.848Z,34.90
2023-05-11T17:12:13.735Z,27.97
2023-05-11T17:14:40.561Z,33.23
2023-05-11T17:17:08.238Z,37.40
2023-05-11T17:19:35.084Z,26.53
2023-05-11T17:22:02.432Z,24.97
2023-05-11T17:24:29.407Z,23.10
2023-05-11T17:26:56.308Z,25.03
2023-05-11T17:29:23.522Z,22.57
2023-05-11T17:31:52.070Z,19.13
2023-05-11T17:34:20.531Z,21.57
2023-05-11T17:36:48.574Z,22.20
2023-05-11T17:39:16.666Z,18.57
2023-05-11T17:41:43.819Z,23.73
2023-05-11T17:44:10.833Z,21.30
2023-05-11T17:46:37.693Z,16.90
2023-05-11T17:49:06.135Z,23.77
2023-05-11T17:51:33.094Z,18.80
2023-05-11T17:53:59.939Z,16.50
2023-05-11T17:56:26.948Z,14.73
2023-05-11T17:58:53.779Z,17.50
2023-05-11T18:01:22.900Z,11.13
2023-05-11T18:03:50.312Z,12.53
2023-05-11T18:06:17.309Z,10.73
2023-05-11T18:08:44.174Z,14.53
2023-05-11T18:11:12.982Z,10.80
2023-05-11T18:13:40.042Z,15.10
2023-05-11T18:16:07.386Z,8.80
2023-05-11T18:18:34.612Z,9.20
2023-05-11T18:21:08.328Z,7.47
2023-05-11T18:23:35.153Z,7.30
2023-05-11T18:26:01.991Z,7.20
2023-05-11T18:28:28.917Z,7.60
2023-05-11T18:30:56.193Z,8.10
2023-05-11T18:33:23.087Z,6.53
2023-05-11T18:35:51.613Z,7.97
2023-05-11T18:38:18.548Z,6.47
2023-05-11T18:40:45.512Z,7.40
2023-05-11T18:43:12.547Z,9.73
2023-05-11T18:45:41.114Z,6.97
2023-05-11T18:48:08.217Z,7.57
2023-05-11T18:50:35.904Z,6.13
2023-05-11T18:53:02.790Z,7.20
2023-05-11T18:55:35.510Z,7.30
2023-05-11T18:58:08.128Z,8.93
2023-05-11T19:00:37.668Z,6.47
2023-05-11T19:03:04.656Z,7.37
2023-05-11T19:05:31.671Z,7.27
2023-05-11T19:07:58.544Z,6.43
2023-05-11T19:10:25.371Z,10.30
2023-05-11T19:12:52.260Z,6.10
2023-05-11T19:15:19.243Z,6.77
2023-05-11T19:17:46.575Z,6.60
2023-05-11T19:20:13.826Z,6.87
2023-05-11T19:22:40.828Z,6.27
2023-05-11T19:25:08.737Z,6.00
2023-05-11T19:27:35.957Z,7.00
2023-05-11T19:30:04.778Z,6.83
2023-05-11T19:32:31.694Z,7.70
2023-05-11T19:34:58.546Z,6.13
2023-05-11T19:37:25.389Z,5.77
2023-05-11T19:39:52.305Z,5.67
2023-05-11T19:42:23.558Z,6.17
2023-05-11T19:44:58.889Z,6.10
2023-05-11T19:47:26.038Z,5.90
2023-05-11T19:49:53.195Z,6.03
2023-05-11T19:52:20.191Z,6.73
2023-05-11T19:54:47.307Z,5.87
2023-05-11T19:57:14.147Z,6.30
2023-05-11T19:59:41.326Z,5.47
2023-05-11T20:02:08.160Z,6.00
2023-05-11T20:04:34.961Z,6.60
2023-05-11T20:07:01.872Z,5.20
2023-05-11T20:09:28.747Z,5.80
2023-05-11T20:11:56.036Z,5.90
2023-05-11T20:14:23.334Z,5.90
2023-05-11T20:16:50.175Z,6.80
2023-05-11T20:19:17.266Z,5.53
2023-05-11T20:21:44.158Z,5.87
2023-05-11T20:24:11.057Z,6.17
2023-05-11T20:26:38.316Z,8.07
2023-05-11T20:29:06.922Z,10.53
2023-05-11T20:31:34.204Z,7.00
2023-05-11T20:36:30.949Z,6.30
2023-05-11T20:38:57.837Z,7.60
2023-05-11T20:41:24.779Z,6.90
2023-05-11T20:43:52.897Z,7.30
2023-05-11T20:46:20.720Z,6.93
2023-05-11T20:48:51.455Z,8.10
2023-05-11T20:51:23.290Z,7.70
2023-05-11T20:53:50.837Z,8.10
2023-05-11T20:56:17.623Z,9.43
2023-05-11T20:58:47.530Z,9.00
2023-05-11T21:01:14.563Z,9.00
2023-05-11T21:03:41.695Z,10.40
2023-05-11T21:06:08.995Z,8.93
2023-05-11T21:08:36.462Z,9.13
2023-05-11T21:11:03.367Z,11.27
2023-05-11T21:13:30.730Z,10.43
2023-05-11T21:15:57.679Z,9.00
2023-05-11T21:18:32.103Z,10.33
2023-05-11T21:20:59.286Z,10.20
2023-05-11T21:23:26.165Z,11.33
2023-05-11T21:25:54.818Z,8.90
2023-05-11T21:28:21.820Z,10.70
2023-05-11T21:30:48.739Z,10.10
2023-05-11T21:33:15.728Z,9.90
2023-05-11T21:35:42.642Z,10.77
2023-05-11T21:38:10.084Z,11.87
2023-05-11T21:40:38.945Z,13.10
2023-05-11T21:43:09.088Z,11.77
2023-05-11T21:45:36.615Z,11.23
2023-05-11T21:48:03.688Z,12.73
2023-05-11T21:50:30.606Z,13.00
2023-05-11T21:52:57.454Z,15.47
2023-05-11T21:55:24.498Z,12.30
2023-05-11T21:57:51.692Z,14.23
2023-05-11T22:00:19.623Z,20.43
2023-05-11T22:02:46.738Z,13.70
2023-05-11T22:05:13.656Z,14.17
2023-05-11T22:07:40.699Z,14.80
2023-05-11T22:10:08.055Z,15.80
2023-05-11T22:12:35.111Z,15.47
2023-05-11T22:15:03.784Z,16.77
2023-05-11T22:17:30.740Z,22.37
2023-05-11T22:19:57.587Z,19.40
2023-05-11T22:22:27.747Z,18.13
2023-05-11T22:24:54.768Z,19.80
2023-05-11T22:27:21.664Z,18.77
2023-05-11T22:29:48.665Z,19.80
2023-05-11T22:32:15.499Z,21.93
2023-05-11T22:34:42.493Z,21.40
2023-05-11T22:37:09.402Z,21.40
2023-05-11T22:39:36.455Z,24.60
2023-05-11T22:42:03.573Z,25.07
2023-05-11T22:44:30.472Z,28.00
2023-05-11T22:46:59.381Z,31.30
2023-05-11T22:49:26.997Z,28.00
2023-05-11T22:51:58.647Z,26.30
2023-05-11T22:54:26.684Z,25.83
2023-05-11T22:56:53.953Z,26.33
2023-05-11T22:59:21.055Z,27.40
2023-05-11T23:01:47.956Z,30.13
2023-05-11T23:04:15.279Z,37.70
2023-05-11T23:06:42.261Z,31.70
2023-05-11T23:09:09.864Z,38.63
2023-05-11T23:11:36.750Z,32.53
2023-05-11T23:14:04.202Z,30.20
2023-05-11T23:16:31.079Z,32.90
2023-05-11T23:18:58.118Z,29.73
2023-05-11T23:21:25.058Z,34.67
2023-05-11T23:23:51.903Z,27.90
2023-05-11T23:26:18.873Z,22.73
2023-05-11T23:28:45.660Z,24.77
2023-05-11T23:31:12.528Z,27.93
2023-05-11T23:33:39.500Z,25.13
2023-05-11T23:36:06.711Z,25.13
2023-05-11T23:38:35.140Z,21.97
2023-05-11T23:41:01.971Z,20.80
2023-05-11T23:43:28.949Z,17.13
2023-05-11T23:45:57.695Z,21.37
2023-05-11T23:48:24.757Z,24.13
2023-05-11T23:50:51.596Z,25.73
2023-05-11T23:53:18.729Z,21.93
2023-05-11T23:55:50.850Z,24.80
2023-05-11T23:58:17.713Z,25.90
